sensor_id;sensor_type;location;lat;lon;timestamp;P1;durP1;ratioP1;P2;durP2;ratioP2
49722;SDS011;43484;43.608;1.458;2023-06-24T00:00:07;6.90;;;4.20;;
49722;SDS011;43484;43.608;1.458;2023-06-24T00:02:38;6.90;;;4.70;;
49722;SDS011;43484;43.608;1.458;2023-06-24T00:05:07;5.32;;;4.30;;
49722;SDS011;43484;43.608;1.458;2023-06-24T00:07:35;7.57;;;4.40;;
49722;SDS011;43484;43.608;1.458;2023-06-24T00:10:11;8.85;;;4.57;;
49722;SDS011;43484;43.608;1.458;2023-06-24T00:12:42;4.93;;;4.43;;
49722;SDS011;43484;43.608;1.458;2023-06-24T00:15:09;10.85;;;4.55;;
49722;SDS011;43484;43.608;1.458;2023-06-24T00:17:36;7.03;;;4.75;;
49722;SDS011;43484;43.608;1.458;2023-06-24T00:20:04;7.35;;;4.88;;
49722;SDS011;43484;43.608;1.458;2023-06-24T00:22:33;7.40;;;5.00;;
49722;SDS011;43484;43.608;1.458;2023-06-24T00:25:00;5.13;;;4.13;;
49722;SDS011;43484;43.608;1.458;2023-06-24T00:27:27;5.85;;;4.63;;
49722;SDS011;43484;43.608;1.458;2023-06-24T00:29:53;7.25;;;4.25;;
49722;SDS011;43484;43.608;1.458;2023-06-24T00:32:20;8.23;;;4.43;;
49722;SDS011;43484;43.608;1.458;2023-06-24T00:34:46;6.68;;;4.28;;
49722;SDS011;43484;43.608;1.458;2023-06-24T00:37:14;9.38;;;4.70;;
49722;SDS011;43484;43.608;1.458;2023-06-24T00:39:40;5.82;;;4.55;;
49722;SDS011;43484;43.608;1.458;2023-06-24T00:42:07;7.93;;;4.82;;
49722;SDS011;43484;43.608;1.458;2023-06-24T00:44:34;7.68;;;4.78;;
49722;SDS011;43484;43.608;1.458;2023-06-24T00:47:00;6.63;;;4.50;;
49722;SDS011;43484;43.608;1.458;2023-06-24T00:49:28;6.00;;;4.28;;
49722;SDS011;43484;43.608;1.458;2023-06-24T00:51:54;7.07;;;3.95;;
49722;SDS011;43484;43.608;1.458;2023-06-24T00:54:22;6.50;;;4.70;;
49722;SDS011;43484;43.608;1.458;2023-06-24T00:56:48;8.15;;;4.38;;
49722;SDS011;43484;43.608;1.458;2023-06-24T00:59:15;6.57;;;4.95;;
49722;SDS011;43484;43.608;1.458;2023-06-24T01:01:43;5.35;;;4.38;;
49722;SDS011;43484;43.608;1.458;2023-06-24T01:04:12;8.75;;;4.25;;
49722;SDS011;43484;43.608;1.458;2023-06-24T01:06:39;6.50;;;4.43;;
49722;SDS011;43484;43.608;1.458;2023-06-24T01:09:10;11.50;;;4.55;;
49722;SDS011;43484;43.608;1.458;2023-06-24T01:11:38;13.18;;;4.65;;
49722;SDS011;43484;43.608;1.458;2023-06-24T01:14:05;8.48;;;5.10;;
49722;SDS011;43484;43.608;1.458;2023-06-24T01:17:35;6.32;;;4.63;;
49722;SDS011;43484;43.608;1.458;2023-06-24T01:31:19;16.95;;;5.20;;
49722;SDS011;43484;43.608;1.458;2023-06-24T01:37:20;9.10;;;5.40;;
49722;SDS011;43484;43.608;1.458;2023-06-24T01:42:38;8.15;;;4.93;;
49722;SDS011;43484;43.608;1.458;2023-06-24T01:45:08;11.23;;;5.97;;
49722;SDS011;43484;43.608;1.458;2023-06-24T01:47:39;10.13;;;5.80;;
49722;SDS011;43484;43.608;1.458;2023-06-24T01:50:10;5.88;;;4.72;;
49722;SDS011;43484;43.608;1.458;2023-06-24T01:52:40;9.27;;;5.20;;
49722;SDS011;43484;43.608;1.458;2023-06-24T01:55:10;8.93;;;4.47;;
49722;SDS011;43484;43.608;1.458;2023-06-24T01:57:41;8.80;;;4.45;;
49722;SDS011;43484;43.608;1.458;2023-06-24T02:00:10;6.72;;;4.57;;
49722;SDS011;43484;43.608;1.458;2023-06-24T02:02:38;5.28;;;4.38;;
49722;SDS011;43484;43.608;1.458;2023-06-24T02:05:06;7.20;;;4.82;;
49722;SDS011;43484;43.608;1.458;2023-06-24T02:07:35;9.73;;;4.57;;
49722;SDS011;43484;43.608;1.458;2023-06-24T02:10:03;5.75;;;4.30;;
49722;SDS011;43484;43.608;1.458;2023-06-24T02:12:32;6.47;;;4.57;;
49722;SDS011;43484;43.608;1.458;2023-06-24T02:14:59;9.38;;;5.18;;
49722;SDS011;43484;43.608;1.458;2023-06-24T02:17:28;8.40;;;5.10;;
49722;SDS011;43484;43.608;1.458;2023-06-24T02:19:56;9.38;;;5.55;;
49722;SDS011;43484;43.608;1.458;2023-06-24T02:22:24;7.18;;;4.20;;
49722;SDS011;43484;43.608;1.458;2023-06-24T02:24:51;8.50;;;4.57;;
49722;SDS011;43484;43.608;1.458;2023-06-24T02:27:20;8.10;;;5.05;;
49722;SDS011;43484;43.608;1.458;2023-06-24T02:29:47;10.00;;;5.13;;
49722;SDS011;43484;43.608;1.458;2023-06-24T02:32:14;10.77;;;5.25;;
49722;SDS011;43484;43.608;1.458;2023-06-24T02:34:41;8.15;;;5.57;;
49722;SDS011;43484;43.608;1.458;2023-06-24T02:37:07;5.57;;;4.70;;
49722;SDS011;43484;43.608;1.458;2023-06-24T02:39:34;5.80;;;5.20;;
49722;SDS011;43484;43.608;1.458;2023-06-24T02:42:01;6.28;;;5.65;;
49722;SDS011;43484;43.608;1.458;2023-06-24T02:44:28;10.15;;;5.82;;
49722;SDS011;43484;43.608;1.458;2023-06-24T02:46:54;7.93;;;5.93;;
49722;SDS011;43484;43.608;1.458;2023-06-24T02:49:23;8.48;;;6.50;;
49722;SDS011;43484;43.608;1.458;2023-06-24T02:51:50;7.63;;;5.65;;
49722;SDS011;43484;43.608;1.458;2023-06-24T02:54:16;11.77;;;6.00;;
49722;SDS011;43484;43.608;1.458;2023-06-24T02:56:44;9.00;;;6.65;;
49722;SDS011;43484;43.608;1.458;2023-06-24T02:59:11;8.32;;;6.75;;
49722;SDS011;43484;43.608;1.458;2023-06-24T03:01:38;8.20;;;6.32;;
49722;SDS011;43484;43.608;1.458;2023-06-24T03:04:06;7.60;;;5.72;;
49722;SDS011;43484;43.608;1.458;2023-06-24T03:06:33;11.70;;;6.70;;
49722;SDS011;43484;43.608;1.458;2023-06-24T03:09:02;11.40;;;6.10;;
49722;SDS011;43484;43.608;1.458;2023-06-24T03:11:30;7.63;;;6.22;;
49722;SDS011;43484;43.608;1.458;2023-06-24T03:13:56;8.20;;;6.00;;
49722;SDS011;43484;43.608;1.458;2023-06-24T03:16:23;9.05;;;5.93;;
49722;SDS011;43484;43.608;1.458;2023-06-24T03:18:50;6.93;;;4.88;;
49722;SDS011;43484;43.608;1.458;2023-06-24T03:21:16;7.65;;;4.57;;
49722;SDS011;43484;43.608;1.458;2023-06-24T03:23:43;8.10;;;4.97;;
49722;SDS011;43484;43.608;1.458;2023-06-24T03:26:09;7.18;;;5.28;;
49722;SDS011;43484;43.608;1.458;2023-06-24T03:28:36;8.02;;;4.68;;
49722;SDS011;43484;43.608;1.458;2023-06-24T03:31:04;7.00;;;4.90;;
49722;SDS011;43484;43.608;1.458;2023-06-24T03:33:31;8.52;;;4.65;;
49722;SDS011;43484;43.608;1.458;2023-06-24T03:35:57;9.68;;;4.50;;
49722;SDS011;43484;43.608;1.458;2023-06-24T03:38:24;9.27;;;5.00;;
49722;SDS011;43484;43.608;1.458;2023-06-24T03:40:51;9.05;;;4.60;;
49722;SDS011;43484;43.608;1.458;2023-06-24T03:43:17;5.60;;;4.10;;
49722;SDS011;43484;43.608;1.458;2023-06-24T03:45:44;7.13;;;4.65;;
49722;SDS011;43484;43.608;1.458;2023-06-24T03:48:11;6.18;;;4.55;;
49722;SDS011;43484;43.608;1.458;2023-06-24T03:50:37;6.53;;;5.20;;
49722;SDS011;43484;43.608;1.458;2023-06-24T03:53:05;10.48;;;4.95;;
49722;SDS011;43484;43.608;1.458;2023-06-24T03:55:32;13.52;;;4.45;;
49722;SDS011;43484;43.608;1.458;2023-06-24T03:57:59;10.32;;;4.60;;
49722;SDS011;43484;43.608;1.458;2023-06-24T04:00:26;8.30;;;5.07;;
49722;SDS011;43484;43.608;1.458;2023-06-24T04:02:52;8.63;;;4.93;;
49722;SDS011;43484;43.608;1.458;2023-06-24T04:05:20;5.63;;;4.60;;
49722;SDS011;43484;43.608;1.458;2023-06-24T04:07:46;6.38;;;4.97;;
49722;SDS011;43484;43.608;1.458;2023-06-24T04:10:14;9.07;;;4.60;;
49722;SDS011;43484;43.608;1.458;2023-06-24T04:12:40;5.25;;;4.35;;
49722;SDS011;43484;43.608;1.458;2023-06-24T04:15:07;8.27;;;4.93;;
49722;SDS011;43484;43.608;1.458;2023-06-24T04:17:34;7.05;;;4.72;;
49722;SDS011;43484;43.608;1.458;2023-06-24T04:20:01;15.95;;;5.18;;
49722;SDS011;43484;43.608;1.458;2023-06-24T04:22:30;6.88;;;4.82;;
49722;SDS011;43484;43.608;1.458;2023-06-24T04:24:57;15.25;;;4.90;;
49722;SDS011;43484;43.608;1.458;2023-06-24T04:27:23;11.13;;;4.78;;
49722;SDS011;43484;43.608;1.458;2023-06-24T04:29:50;7.05;;;4.78;;
49722;SDS011;43484;43.608;1.458;2023-06-24T04:32:17;14.32;;;4.90;;
49722;SDS011;43484;43.608;1.458;2023-06-24T04:34:43;7.47;;;4.57;;
49722;SDS011;43484;43.608;1.458;2023-06-24T04:37:10;8.07;;;4.57;;
49722;SDS011;43484;43.608;1.458;2023-06-24T04:39:37;10.32;;;5.03;;
49722;SDS011;43484;43.608;1.458;2023-06-24T04:42:03;7.63;;;5.05;;
49722;SDS011;43484;43.608;1.458;2023-06-24T04:44:30;6.55;;;5.25;;
49722;SDS011;43484;43.608;1.458;2023-06-24T04:46:57;17.08;;;7.57;;
49722;SDS011;43484;43.608;1.458;2023-06-24T04:49:23;11.82;;;5.38;;
49722;SDS011;43484;43.608;1.458;2023-06-24T04:51:50;7.43;;;4.75;;
49722;SDS011;43484;43.608;1.458;2023-06-24T04:54:17;8.02;;;4.78;;
49722;SDS011;43484;43.608;1.458;2023-06-24T04:56:44;10.73;;;4.78;;
49722;SDS011;43484;43.608;1.458;2023-06-24T04:59:15;6.22;;;5.32;;
49722;SDS011;43484;43.608;1.458;2023-06-24T05:01:41;7.38;;;5.00;;
49722;SDS011;43484;43.608;1.458;2023-06-24T05:04:08;6.70;;;5.05;;
49722;SDS011;43484;43.608;1.458;2023-06-24T05:06:34;10.88;;;4.75;;
49722;SDS011;43484;43.608;1.458;2023-06-24T05:09:01;7.05;;;4.75;;
49722;SDS011;43484;43.608;1.458;2023-06-24T05:11:28;7.55;;;4.43;;
49722;SDS011;43484;43.608;1.458;2023-06-24T05:13:55;6.15;;;4.47;;
49722;SDS011;43484;43.608;1.458;2023-06-24T05:16:23;7.35;;;5.20;;
49722;SDS011;43484;43.608;1.458;2023-06-24T05:18:50;8.45;;;4.80;;
49722;SDS011;43484;43.608;1.458;2023-06-24T05:21:17;6.32;;;4.15;;
49722;SDS011;43484;43.608;1.458;2023-06-24T05:23:43;7.78;;;5.05;;
49722;SDS011;43484;43.608;1.458;2023-06-24T05:26:10;9.50;;;4.75;;
49722;SDS011;43484;43.608;1.458;2023-06-24T05:28:37;6.80;;;4.70;;
49722;SDS011;43484;43.608;1.458;2023-06-24T05:31:04;5.97;;;4.63;;
49722;SDS011;43484;43.608;1.458;2023-06-24T05:33:31;7.30;;;4.40;;
49722;SDS011;43484;43.608;1.458;2023-06-24T05:35:58;5.65;;;4.50;;
49722;SDS011;43484;43.608;1.458;2023-06-24T05:38:25;9.70;;;4.68;;
49722;SDS011;43484;43.608;1.458;2023-06-24T05:40:51;12.10;;;4.22;;
49722;SDS011;43484;43.608;1.458;2023-06-24T05:43:18;5.05;;;4.20;;
49722;SDS011;43484;43.608;1.458;2023-06-24T05:45:45;6.35;;;5.00;;
49722;SDS011;43484;43.608;1.458;2023-06-24T05:48:11;9.70;;;4.50;;
49722;SDS011;43484;43.608;1.458;2023-06-24T05:50:38;6.13;;;3.75;;
49722;SDS011;43484;43.608;1.458;2023-06-24T05:53:04;7.93;;;4.20;;
49722;SDS011;43484;43.608;1.458;2023-06-24T05:55:31;7.07;;;4.68;;
49722;SDS011;43484;43.608;1.458;2023-06-24T05:57:58;7.88;;;4.30;;
49722;SDS011;43484;43.608;1.458;2023-06-24T06:00:25;13.07;;;4.70;;
49722;SDS011;43484;43.608;1.458;2023-06-24T06:02:52;9.07;;;4.78;;
49722;SDS011;43484;43.608;1.458;2023-06-24T06:05:19;11.95;;;4.68;;
49722;SDS011;43484;43.608;1.458;2023-06-24T06:07:45;12.57;;;4.60;;
49722;SDS011;43484;43.608;1.458;2023-06-24T06:10:12;6.47;;;4.50;;
49722;SDS011;43484;43.608;1.458;2023-06-24T06:12:41;5.80;;;4.75;;
49722;SDS011;43484;43.608;1.458;2023-06-24T06:15:08;6.35;;;4.43;;
49722;SDS011;43484;43.608;1.458;2023-06-24T06:17:35;8.90;;;4.88;;
49722;SDS011;43484;43.608;1.458;2023-06-24T06:20:02;5.88;;;4.43;;
49722;SDS011;43484;43.608;1.458;2023-06-24T06:22:29;9.30;;;4.30;;
49722;SDS011;43484;43.608;1.458;2023-06-24T06:24:56;8.85;;;5.07;;
49722;SDS011;43484;43.608;1.458;2023-06-24T06:27:22;5.35;;;4.38;;
49722;SDS011;43484;43.608;1.458;2023-06-24T06:29:49;9.63;;;4.45;;
49722;SDS011;43484;43.608;1.458;2023-06-24T06:32:16;7.13;;;4.60;;
49722;SDS011;43484;43.608;1.458;2023-06-24T06:34:42;6.20;;;4.25;;
49722;SDS011;43484;43.608;1.458;2023-06-24T06:37:09;9.52;;;4.95;;
49722;SDS011;43484;43.608;1.458;2023-06-24T06:39:35;8.13;;;4.80;;
49722;SDS011;43484;43.608;1.458;2023-06-24T06:42:02;5.50;;;3.72;;
49722;SDS011;43484;43.608;1.458;2023-06-24T06:44:29;6.15;;;4.45;;
49722;SDS011;43484;43.608;1.458;2023-06-24T06:46:56;7.97;;;4.38;;
49722;SDS011;43484;43.608;1.458;2023-06-24T06:49:22;8.18;;;4.97;;
49722;SDS011;43484;43.608;1.458;2023-06-24T06:51:49;4.70;;;3.80;;
49722;SDS011;43484;43.608;1.458;2023-06-24T06:54:16;7.88;;;4.55;;
49722;SDS011;43484;43.608;1.458;2023-06-24T06:56:42;8.20;;;4.65;;
49722;SDS011;43484;43.608;1.458;2023-06-24T06:59:10;7.50;;;4.18;;
49722;SDS011;43484;43.608;1.458;2023-06-24T07:01:37;5.82;;;3.92;;
49722;SDS011;43484;43.608;1.458;2023-06-24T07:04:04;5.78;;;4.22;;
49722;SDS011;43484;43.608;1.458;2023-06-24T07:06:30;7.15;;;4.22;;
49722;SDS011;43484;43.608;1.458;2023-06-24T07:08:59;8.25;;;3.88;;
49722;SDS011;43484;43.608;1.458;2023-06-24T07:11:25;7.57;;;4.43;;
49722;SDS011;43484;43.608;1.458;2023-06-24T07:13:52;7.45;;;3.92;;
49722;SDS011;43484;43.608;1.458;2023-06-24T07:16:19;5.63;;;3.78;;
49722;SDS011;43484;43.608;1.458;2023-06-24T07:18:46;4.20;;;3.75;;
49722;SDS011;43484;43.608;1.458;2023-06-24T07:21:13;6.70;;;4.25;;
49722;SDS011;43484;43.608;1.458;2023-06-24T07:23:39;4.25;;;3.75;;
49722;SDS011;43484;43.608;1.458;2023-06-24T07:26:07;6.25;;;4.05;;
49722;SDS011;43484;43.608;1.458;2023-06-24T07:28:34;5.28;;;3.70;;
49722;SDS011;43484;43.608;1.458;2023-06-24T07:31:01;6.10;;;4.22;;
49722;SDS011;43484;43.608;1.458;2023-06-24T07:33:28;5.50;;;4.18;;
49722;SDS011;43484;43.608;1.458;2023-06-24T07:35:57;4.60;;;4.07;;
49722;SDS011;43484;43.608;1.458;2023-06-24T07:38:23;6.65;;;3.85;;
49722;SDS011;43484;43.608;1.458;2023-06-24T07:40:50;5.70;;;3.83;;
49722;SDS011;43484;43.608;1.458;2023-06-24T07:43:17;4.18;;;3.58;;
49722;SDS011;43484;43.608;1.458;2023-06-24T07:45:43;8.68;;;3.50;;
49722;SDS011;43484;43.608;1.458;2023-06-24T07:48:10;5.65;;;3.80;;
49722;SDS011;43484;43.608;1.458;2023-06-24T07:50:37;4.97;;;3.75;;
49722;SDS011;43484;43.608;1.458;2023-06-24T07:53:05;6.93;;;3.85;;
49722;SDS011;43484;43.608;1.458;2023-06-24T07:55:32;8.60;;;3.97;;
49722;SDS011;43484;43.608;1.458;2023-06-24T07:57:59;8.32;;;4.28;;
49722;SDS011;43484;43.608;1.458;2023-06-24T08:00:25;5.10;;;3.80;;
49722;SDS011;43484;43.608;1.458;2023-06-24T08:02:52;4.32;;;3.58;;
49722;SDS011;43484;43.608;1.458;2023-06-24T08:05:19;7.88;;;4.20;;
49722;SDS011;43484;43.608;1.458;2023-06-24T08:07:46;7.80;;;3.85;;
49722;SDS011;43484;43.608;1.458;2023-06-24T08:10:13;5.13;;;3.75;;
49722;SDS011;43484;43.608;1.458;2023-06-24T08:12:40;4.30;;;3.05;;
49722;SDS011;43484;43.608;1.458;2023-06-24T08:15:07;7.63;;;3.83;;
49722;SDS011;43484;43.608;1.458;2023-06-24T08:17:34;6.35;;;3.60;;
49722;SDS011;43484;43.608;1.458;2023-06-24T08:20:01;5.30;;;3.53;;
49722;SDS011;43484;43.608;1.458;2023-06-24T08:22:29;9.77;;;3.38;;
49722;SDS011;43484;43.608;1.458;2023-06-24T08:24:56;5.10;;;3.97;;
49722;SDS011;43484;43.608;1.458;2023-06-24T08:27:22;7.15;;;3.22;;
49722;SDS011;43484;43.608;1.458;2023-06-24T08:29:49;5.95;;;3.40;;
49722;SDS011;43484;43.608;1.458;2023-06-24T08:32:15;8.00;;;3.20;;
49722;SDS011;43484;43.608;1.458;2023-06-24T08:34:42;5.22;;;2.97;;
49722;SDS011;43484;43.608;1.458;2023-06-24T08:37:09;6.97;;;3.05;;
49722;SDS011;43484;43.608;1.458;2023-06-24T08:39:36;4.88;;;2.72;;
49722;SDS011;43484;43.608;1.458;2023-06-24T08:42:03;4.78;;;2.90;;
49722;SDS011;43484;43.608;1.458;2023-06-24T08:44:30;3.38;;;2.78;;
49722;SDS011;43484;43.608;1.458;2023-06-24T08:46:57;4.40;;;2.85;;
49722;SDS011;43484;43.608;1.458;2023-06-24T08:52:03;3.85;;;2.45;;
49722;SDS011;43484;43.608;1.458;2023-06-24T08:54:34;10.02;;;2.95;;
49722;SDS011;43484;43.608;1.458;2023-06-24T08:57:03;3.80;;;2.58;;
49722;SDS011;43484;43.608;1.458;2023-06-24T08:59:32;3.30;;;2.33;;
49722;SDS011;43484;43.608;1.458;2023-06-24T09:01:59;8.88;;;2.72;;
49722;SDS011;43484;43.608;1.458;2023-06-24T09:04:26;7.82;;;3.17;;
49722;SDS011;43484;43.608;1.458;2023-06-24T09:06:53;8.98;;;2.72;;
49722;SDS011;43484;43.608;1.458;2023-06-24T09:09:23;13.10;;;3.13;;
49722;SDS011;43484;43.608;1.458;2023-06-24T09:12:00;11.32;;;2.72;;
49722;SDS011;43484;43.608;1.458;2023-06-24T09:14:29;2.80;;;2.38;;
49722;SDS011;43484;43.608;1.458;2023-06-24T09:16:59;15.65;;;3.15;;
49722;SDS011;43484;43.608;1.458;2023-06-24T09:19:28;3.70;;;2.30;;
49722;SDS011;43484;43.608;1.458;2023-06-24T09:21:55;3.17;;;2.72;;
49722;SDS011;43484;43.608;1.458;2023-06-24T09:24:27;5.90;;;2.88;;
49722;SDS011;43484;43.608;1.458;2023-06-24T09:26:56;3.85;;;2.58;;
49722;SDS011;43484;43.608;1.458;2023-06-24T09:29:26;3.47;;;2.97;;
49722;SDS011;43484;43.608;1.458;2023-06-24T09:31:55;10.68;;;2.80;;
49722;SDS011;43484;43.608;1.458;2023-06-24T09:34:23;16.83;;;3.63;;
49722;SDS011;43484;43.608;1.458;2023-06-24T09:36:54;18.40;;;3.60;;
49722;SDS011;43484;43.608;1.458;2023-06-24T09:39:22;6.45;;;2.72;;
49722;SDS011;43484;43.608;1.458;2023-06-24T09:41:56;9.20;;;2.80;;
49722;SDS011;43484;43.608;1.458;2023-06-24T09:44:23;4.93;;;2.58;;
49722;SDS011;43484;43.608;1.458;2023-06-24T09:46:50;4.15;;;2.50;;
49722;SDS011;43484;43.608;1.458;2023-06-24T09:49:17;5.45;;;2.38;;
49722;SDS011;43484;43.608;1.458;2023-06-24T09:51:45;3.47;;;2.80;;
49722;SDS011;43484;43.608;1.458;2023-06-24T09:54:13;6.28;;;2.60;;
49722;SDS011;43484;43.608;1.458;2023-06-24T09:56:50;5.60;;;2.80;;
49722;SDS011;43484;43.608;1.458;2023-06-24T09:59:19;4.20;;;2.60;;
49722;SDS011;43484;43.608;1.458;2023-06-24T10:01:48;5.80;;;2.63;;
49722;SDS011;43484;43.608;1.458;2023-06-24T10:04:18;4.05;;;2.97;;
49722;SDS011;43484;43.608;1.458;2023-06-24T10:06:45;3.15;;;2.40;;
49722;SDS011;43484;43.608;1.458;2023-06-24T10:09:13;9.05;;;2.17;;
49722;SDS011;43484;43.608;1.458;2023-06-24T10:11:44;2.85;;;1.88;;
49722;SDS011;43484;43.608;1.458;2023-06-24T10:14:11;3.03;;;2.15;;
49722;SDS011;43484;43.608;1.458;2023-06-24T10:16:38;3.53;;;1.77;;
49722;SDS011;43484;43.608;1.458;2023-06-24T10:19:07;2.28;;;1.77;;
49722;SDS011;43484;43.608;1.458;2023-06-24T10:27:02;2.10;;;1.90;;
49722;SDS011;43484;43.608;1.458;2023-06-24T10:29:39;4.40;;;2.08;;
49722;SDS011;43484;43.608;1.458;2023-06-24T10:32:10;4.05;;;2.05;;
49722;SDS011;43484;43.608;1.458;2023-06-24T10:44:57;11.38;;;1.98;;
49722;SDS011;43484;43.608;1.458;2023-06-24T10:47:25;5.20;;;2.00;;
49722;SDS011;43484;43.608;1.458;2023-06-24T10:49:53;5.47;;;2.28;;
49722;SDS011;43484;43.608;1.458;2023-06-24T10:52:21;3.05;;;1.90;;
49722;SDS011;43484;43.608;1.458;2023-06-24T10:54:49;15.52;;;3.33;;
49722;SDS011;43484;43.608;1.458;2023-06-24T10:57:20;3.00;;;2.15;;
49722;SDS011;43484;43.608;1.458;2023-06-24T10:59:49;3.05;;;2.05;;
49722;SDS011;43484;43.608;1.458;2023-06-24T11:02:17;5.28;;;2.25;;
49722;SDS011;43484;43.608;1.458;2023-06-24T11:04:56;4.15;;;2.03;;
49722;SDS011;43484;43.608;1.458;2023-06-24T11:07:24;5.38;;;1.80;;
49722;SDS011;43484;43.608;1.458;2023-06-24T11:10:04;1.95;;;1.70;;
49722;SDS011;43484;43.608;1.458;2023-06-24T11:12:35;4.78;;;2.05;;
49722;SDS011;43484;43.608;1.458;2023-06-24T11:15:05;2.45;;;2.22;;
49722;SDS011;43484;43.608;1.458;2023-06-24T11:17:36;2.65;;;1.88;;
49722;SDS011;43484;43.608;1.458;2023-06-24T11:20:08;2.85;;;2.03;;
49722;SDS011;43484;43.608;1.458;2023-06-24T11:22:35;5.05;;;2.35;;
49722;SDS011;43484;43.608;1.458;2023-06-24T11:25:02;3.30;;;2.28;;
49722;SDS011;43484;43.608;1.458;2023-06-24T11:27:30;2.72;;;2.10;;
49722;SDS011;43484;43.608;1.458;2023-06-24T11:29:58;3.03;;;1.88;;
49722;SDS011;43484;43.608;1.458;2023-06-24T11:32:40;3.13;;;2.00;;
49722;SDS011;43484;43.608;1.458;2023-06-24T11:35:10;7.07;;;2.33;;
49722;SDS011;43484;43.608;1.458;2023-06-24T11:37:43;4.18;;;1.70;;
49722;SDS011;43484;43.608;1.458;2023-06-24T11:40:17;3.22;;;2.25;;
49722;SDS011;43484;43.608;1.458;2023-06-24T11:42:46;4.15;;;1.70;;
49722;SDS011;43484;43.608;1.458;2023-06-24T11:45:19;4.30;;;1.80;;
49722;SDS011;43484;43.608;1.458;2023-06-24T11:47:47;3.03;;;1.70;;
49722;SDS011;43484;43.608;1.458;2023-06-24T11:50:15;3.65;;;2.03;;
49722;SDS011;43484;43.608;1.458;2023-06-24T11:52:42;10.13;;;2.60;;
49722;SDS011;43484;43.608;1.458;2023-06-24T11:55:11;2.50;;;2.30;;
49722;SDS011;43484;43.608;1.458;2023-06-24T12:00:45;6.00;;;1.88;;
49722;SDS011;43484;43.608;1.458;2023-06-24T12:03:13;2.22;;;1.70;;
49722;SDS011;43484;43.608;1.458;2023-06-24T12:05:40;2.42;;;1.50;;
49722;SDS011;43484;43.608;1.458;2023-06-24T12:08:13;4.28;;;2.00;;
49722;SDS011;43484;43.608;1.458;2023-06-24T12:10:43;3.78;;;2.00;;
49722;SDS011;43484;43.608;1.458;2023-06-24T12:13:11;3.05;;;2.00;;
49722;SDS011;43484;43.608;1.458;2023-06-24T12:15:38;4.90;;;2.15;;
49722;SDS011;43484;43.608;1.458;2023-06-24T12:18:05;8.23;;;2.72;;
49722;SDS011;43484;43.608;1.458;2023-06-24T12:20:32;2.55;;;2.17;;
49722;SDS011;43484;43.608;1.458;2023-06-24T12:23:04;2.00;;;1.73;;
49722;SDS011;43484;43.608;1.458;2023-06-24T12:25:30;2.67;;;2.03;;
49722;SDS011;43484;43.608;1.458;2023-06-24T12:27:57;2.17;;;1.90;;
49722;SDS011;43484;43.608;1.458;2023-06-24T12:30:26;3.08;;;2.20;;
49722;SDS011;43484;43.608;1.458;2023-06-24T12:32:52;3.80;;;1.95;;
49722;SDS011;43484;43.608;1.458;2023-06-24T12:35:19;6.47;;;1.90;;
49722;SDS011;43484;43.608;1.458;2023-06-24T12:37:46;3.05;;;1.88;;
49722;SDS011;43484;43.608;1.458;2023-06-24T12:40:14;4.35;;;2.03;;
49722;SDS011;43484;43.608;1.458;2023-06-24T12:42:40;7.13;;;5.72;;
49722;SDS011;43484;43.608;1.458;2023-06-24T12:45:08;2.30;;;2.10;;
49722;SDS011;43484;43.608;1.458;2023-06-24T12:47:34;3.03;;;1.83;;
49722;SDS011;43484;43.608;1.458;2023-06-24T12:50:01;7.90;;;1.92;;
49722;SDS011;43484;43.608;1.458;2023-06-24T12:52:35;2.83;;;2.15;;
49722;SDS011;43484;43.608;1.458;2023-06-24T12:55:01;4.53;;;1.80;;
49722;SDS011;43484;43.608;1.458;2023-06-24T12:57:30;2.58;;;2.10;;
49722;SDS011;43484;43.608;1.458;2023-06-24T12:59:56;2.72;;;2.15;;
49722;SDS011;43484;43.608;1.458;2023-06-24T13:02:23;3.35;;;2.05;;
49722;SDS011;43484;43.608;1.458;2023-06-24T13:04:50;3.60;;;2.15;;
49722;SDS011;43484;43.608;1.458;2023-06-24T13:07:16;9.40;;;2.55;;
49722;SDS011;43484;43.608;1.458;2023-06-24T13:09:43;3.97;;;2.17;;
49722;SDS011;43484;43.608;1.458;2023-06-24T13:12:10;3.25;;;2.17;;
49722;SDS011;43484;43.608;1.458;2023-06-24T13:14:36;2.85;;;2.50;;
49722;SDS011;43484;43.608;1.458;2023-06-24T13:17:03;5.47;;;3.13;;
49722;SDS011;43484;43.608;1.458;2023-06-24T13:19:30;4.80;;;2.30;;
49722;SDS011;43484;43.608;1.458;2023-06-24T13:21:58;3.50;;;2.10;;
49722;SDS011;43484;43.608;1.458;2023-06-24T13:24:25;4.40;;;2.58;;
49722;SDS011;43484;43.608;1.458;2023-06-24T13:26:52;2.75;;;2.15;;
49722;SDS011;43484;43.608;1.458;2023-06-24T13:29:19;2.30;;;1.88;;
49722;SDS011;43484;43.608;1.458;2023-06-24T13:31:48;8.32;;;2.13;;
49722;SDS011;43484;43.608;1.458;2023-06-24T13:34:15;4.75;;;2.88;;
49722;SDS011;43484;43.608;1.458;2023-06-24T13:36:41;4.70;;;2.10;;
49722;SDS011;43484;43.608;1.458;2023-06-24T13:39:08;2.50;;;1.92;;
49722;SDS011;43484;43.608;1.458;2023-06-24T13:41:38;3.83;;;1.88;;
49722;SDS011;43484;43.608;1.458;2023-06-24T13:44:05;4.43;;;2.05;;
49722;SDS011;43484;43.608;1.458;2023-06-24T13:46:32;3.35;;;2.28;;
49722;SDS011;43484;43.608;1.458;2023-06-24T13:48:59;4.15;;;2.20;;
49722;SDS011;43484;43.608;1.458;2023-06-24T13:51:30;2.55;;;1.95;;
49722;SDS011;43484;43.608;1.458;2023-06-24T13:53:57;3.97;;;2.22;;
49722;SDS011;43484;43.608;1.458;2023-06-24T13:56:24;4.55;;;1.92;;
49722;SDS011;43484;43.608;1.458;2023-06-24T13:58:52;4.32;;;1.90;;
49722;SDS011;43484;43.608;1.458;2023-06-24T14:01:19;6.63;;;2.30;;
49722;SDS011;43484;43.608;1.458;2023-06-24T14:03:47;2.60;;;2.13;;
49722;SDS011;43484;43.608;1.458;2023-06-24T14:06:15;2.50;;;2.10;;
49722;SDS011;43484;43.608;1.458;2023-06-24T14:08:43;2.92;;;2.13;;
49722;SDS011;43484;43.608;1.458;2023-06-24T14:11:11;2.83;;;2.25;;
49722;SDS011;43484;43.608;1.458;2023-06-24T14:13:38;4.25;;;1.65;;
49722;SDS011;43484;43.608;1.458;2023-06-24T14:16:04;9.15;;;2.50;;
49722;SDS011;43484;43.608;1.458;2023-06-24T14:18:32;4.10;;;2.15;;
49722;SDS011;43484;43.608;1.458;2023-06-24T14:20:59;3.90;;;2.00;;
49722;SDS011;43484;43.608;1.458;2023-06-24T14:23:27;5.20;;;2.00;;
49722;SDS011;43484;43.608;1.458;2023-06-24T14:25:54;2.45;;;2.03;;
49722;SDS011;43484;43.608;1.458;2023-06-24T14:28:21;2.30;;;2.10;;
49722;SDS011;43484;43.608;1.458;2023-06-24T14:30:48;2.10;;;2.00;;
49722;SDS011;43484;43.608;1.458;2023-06-24T14:33:15;3.45;;;2.00;;
49722;SDS011;43484;43.608;1.458;2023-06-24T14:35:42;2.53;;;1.83;;
49722;SDS011;43484;43.608;1.458;2023-06-24T14:38:08;2.88;;;1.90;;
49722;SDS011;43484;43.608;1.458;2023-06-24T14:40:35;7.55;;;2.03;;
49722;SDS011;43484;43.608;1.458;2023-06-24T14:43:02;2.08;;;1.88;;
49722;SDS011;43484;43.608;1.458;2023-06-24T14:45:29;2.15;;;1.98;;
49722;SDS011;43484;43.608;1.458;2023-06-24T14:47:55;5.53;;;1.92;;
49722;SDS011;43484;43.608;1.458;2023-06-24T14:50:23;4.28;;;2.00;;
49722;SDS011;43484;43.608;1.458;2023-06-24T14:52:50;3.35;;;2.22;;
49722;SDS011;43484;43.608;1.458;2023-06-24T14:55:17;3.65;;;1.98;;
49722;SDS011;43484;43.608;1.458;2023-06-24T14:57:43;2.28;;;1.90;;
49722;SDS011;43484;43.608;1.458;2023-06-24T15:00:10;4.15;;;2.60;;
49722;SDS011;43484;43.608;1.458;2023-06-24T15:02:37;3.05;;;2.03;;
49722;SDS011;43484;43.608;1.458;2023-06-24T15:05:04;2.92;;;1.95;;
49722;SDS011;43484;43.608;1.458;2023-06-24T15:07:31;2.75;;;2.22;;
49722;SDS011;43484;43.608;1.458;2023-06-24T15:09:58;3.60;;;2.10;;
49722;SDS011;43484;43.608;1.458;2023-06-24T15:12:24;4.50;;;1.92;;
49722;SDS011;43484;43.608;1.458;2023-06-24T15:14:51;4.32;;;1.80;;
49722;SDS011;43484;43.608;1.458;2023-06-24T15:17:18;2.08;;;1.63;;
49722;SDS011;43484;43.608;1.458;2023-06-24T15:19:44;2.30;;;2.10;;
49722;SDS011;43484;43.608;1.458;2023-06-24T15:22:11;2.55;;;1.65;;
49722;SDS011;43484;43.608;1.458;2023-06-24T15:24:38;2.95;;;2.25;;
49722;SDS011;43484;43.608;1.458;2023-06-24T15:27:05;2.17;;;1.80;;